Time;durP1;ratioP1;P1;durP2;ratioP2;P2;SDS_P1;SDS_P2;PMS_P1;PMS_P2;Temp;Humidity;BMP_temperature;BMP_pressure;BME280_temperature;BME280_humidity;BME280_pressure;Samples;Min_cycle;Max_cycle;Signal;HPM_P1;HPM_P2
2022/04/29 00:02:16;;;;;;;6.72;5.88;;;10.20;50.40;;;;;;5048437;28;20258;-78
2022/04/29 00:04:44;;;;;;;6.78;6.07;;;10.10;50.20;;;;;;5044420;28;20298;-78
2022/04/29 00:07:12;;;;;;;6.40;5.80;;;10.10;49.80;;;;;;5048850;28;20227;-78
2022/04/29 00:09:39;;;;;;;6.03;5.53;;;10.20;49.40;;;;;;5052454;28;20235;-78
2022/04/29 00:12:08;;;;;;;6.35;5.75;;;10.10;49.30;;;;;;5055062;28;20290;-78
2022/04/29 00:14:37;;;;;;;5.97;5.47;;;10.10;49.80;;;;;;5055338;28;20199;-78
2022/04/29 00:17:05;;;;;;;6.22;5.38;;;10.10;50.30;;;;;;5055884;28;20227;-78
2022/04/29 00:19:32;;;;;;;6.32;5.72;;;10.10;50.50;;;;;;5056521;28;20209;-77
2022/04/29 00:21:59;;;;;;;6.55;5.78;;;10.00;50.80;;;;;;5056708;28;20207;-77
2022/04/29 00:24:26;;;;;;;6.00;5.50;;;10.00;51.00;;;;;;5045000;28;20352;-77
2022/04/29 00:26:54;;;;;;;6.82;6.13;;;10.00;51.20;;;;;;5042860;28;20246;-78
2022/04/29 00:29:22;;;;;;;9.35;6.40;;;10.00;51.30;;;;;;5042816;28;20210;-79
2022/04/29 00:31:50;;;;;;;6.80;6.20;;;9.90;52.60;;;;;;5049413;28;20655;-78
2022/04/29 00:34:17;;;;;;;6.30;5.65;;;9.90;53.20;;;;;;5050253;28;20215;-78
2022/04/29 00:36:44;;;;;;;6.30;5.70;;;9.80;53.70;;;;;;5028578;28;20309;-77
2022/04/29 00:39:11;;;;;;;6.93;6.22;;;9.80;53.80;;;;;;5027859;28;20275;-79
2022/04/29 00:41:38;;;;;;;10.82;7.00;;;9.80;54.10;;;;;;5025965;28;20239;-78
2022/04/29 00:44:07;;;;;;;6.53;5.57;;;9.80;54.50;;;;;;5025887;28;20738;-77
2022/04/29 00:46:35;;;;;;;7.43;6.38;;;9.80;54.80;;;;;;5029373;28;20252;-78
2022/04/29 00:49:05;;;;;;;6.88;6.28;;;9.80;54.80;;;;;;5028399;28;20280;-78
2022/04/29 00:51:32;;;;;;;6.70;6.00;;;9.80;54.80;;;;;;5020895;28;20259;-78
2022/04/29 00:54:01;;;;;;;6.65;6.10;;;9.70;54.70;;;;;;5021950;28;20575;-80
2022/04/29 00:56:31;;;;;;;5.65;5.15;;;9.70;54.70;;;;;;5021839;28;20275;-78
2022/04/29 00:59:03;;;;;;;6.65;5.90;;;9.70;54.80;;;;;;5016779;28;20568;-80
2022/04/29 01:01:34;;;;;;;8.18;6.10;;;9.60;54.60;;;;;;5022734;28;20206;-78
2022/04/29 01:04:02;;;;;;;7.45;6.28;;;9.60;54.70;;;;;;5028535;28;20262;-79
2022/04/29 01:06:31;;;;;;;6.00;5.50;;;9.60;55.20;;;;;;5024680;28;20274;-78
2022/04/29 01:08:58;;;;;;;6.50;5.90;;;9.60;55.50;;;;;;5023422;28;20211;-79
2022/04/29 01:11:27;;;;;;;7.53;6.55;;;9.50;55.50;;;;;;5028438;28;20227;-80
2022/04/29 01:13:55;;;;;;;8.45;6.25;;;9.60;55.70;;;;;;5023726;28;20218;-78
2022/04/29 01:16:22;;;;;;;7.18;6.47;;;9.60;55.80;;;;;;5026369;28;20306;-79
2022/04/29 01:18:52;;;;;;;7.10;6.40;;;9.50;55.80;;;;;;5035688;28;20228;-79
2022/04/29 01:21:19;;;;;;;7.15;6.00;;;9.50;56.40;;;;;;5034247;28;20200;-79
2022/04/29 01:23:48;;;;;;;7.10;6.40;;;9.40;56.70;;;;;;5028656;28;20208;-79
2022/04/29 01:26:16;;;;;;;6.72;6.13;;;9.40;56.80;;;;;;5030201;28;20632;-79
2022/04/29 01:28:45;;;;;;;10.10;6.60;;;9.40;57.10;;;;;;5030398;28;20251;-79
2022/04/29 01:31:14;;;;;;;7.43;6.75;;;9.40;57.80;;;;;;5026518;28;20426;-79
2022/04/29 01:33:43;;;;;;;7.32;6.55;;;9.40;58.20;;;;;;5018503;28;20218;-78
2022/04/29 01:36:10;;;;;;;7.72;6.40;;;9.40;58.10;;;;;;5017327;28;20216;-78
2022/04/29 01:38:37;;;;;;;7.53;6.82;;;9.40;57.90;;;;;;5017216;28;20315;-77
2022/04/29 01:41:06;;;;;;;7.65;6.55;;;9.30;57.80;;;;;;5016704;28;20215;-78
2022/04/29 01:43:33;;;;;;;6.70;6.10;;;9.40;58.00;;;;;;5017041;28;20584;-78
2022/04/29 01:46:01;;;;;;;8.20;6.68;;;9.40;57.40;;;;;;5018838;28;20224;-78
2022/04/29 01:48:28;;;;;;;7.78;6.70;;;9.40;57.60;;;;;;5034232;28;20253;-78
2022/04/29 01:50:55;;;;;;;8.10;6.22;;;9.30;57.60;;;;;;5039045;28;20250;-79
2022/04/29 01:53:22;;;;;;;8.50;6.38;;;9.30;58.00;;;;;;5039478;28;20191;-78
2022/04/29 01:55:49;;;;;;;8.20;7.50;;;9.20;58.40;;;;;;5038588;28;20212;-79
2022/04/29 01:58:17;;;;;;;7.55;6.85;;;9.20;59.00;;;;;;5034866;28;20259;-79
2022/04/29 02:00:44;;;;;;;7.15;6.38;;;9.10;58.90;;;;;;5035078;28;20227;-79
2022/04/29 02:03:11;;;;;;;8.45;6.80;;;9.10;58.90;;;;;;5036305;28;20212;-78
2022/04/29 02:05:38;;;;;;;7.28;6.43;;;9.10;58.90;;;;;;5032250;28;20208;-77
2022/04/29 02:08:07;;;;;;;7.85;7.15;;;9.10;58.90;;;;;;5023424;28;20632;-79
2022/04/29 02:10:34;;;;;;;6.35;5.80;;;9.10;58.90;;;;;;5018592;28;20208;-78
2022/04/29 02:13:01;;;;;;;6.72;6.13;;;9.00;58.80;;;;;;5035646;28;20313;-78
2022/04/29 02:15:29;;;;;;;7.50;6.80;;;9.00;58.80;;;;;;5037613;28;20211;-78
2022/04/29 02:17:56;;;;;;;6.47;5.88;;;9.00;58.80;;;;;;5038167;28;20224;-79
2022/04/29 02:20:24;;;;;;;8.00;6.90;;;9.00;58.80;;;;;;5037925;28;20235;-79
2022/04/29 02:22:52;;;;;;;7.32;6.63;;;8.90;58.70;;;;;;5037180;28;20276;-78
2022/04/29 02:25:19;;;;;;;6.80;6.20;;;8.90;58.70;;;;;;5015790;28;20215;-79
2022/04/29 02:27:46;;;;;;;7.30;6.70;;;8.80;59.70;;;;;;5015633;28;20707;-79
2022/04/29 02:30:13;;;;;;;7.55;6.93;;;8.90;60.00;;;;;;5021189;28;20275;-78
2022/04/29 02:32:42;;;;;;;7.15;6.55;;;8.80;59.90;;;;;;5018527;28;20228;-79
2022/04/29 02:35:09;;;;;;;7.05;6.45;;;8.80;59.60;;;;;;5015456;28;20212;-78
2022/04/29 02:37:36;;;;;;;7.13;6.43;;;8.80;59.80;;;;;;5015106;28;20270;-78
2022/04/29 02:40:04;;;;;;;7.32;6.25;;;8.70;60.20;;;;;;5016597;28;20208;-79
2022/04/29 02:42:31;;;;;;;8.23;6.80;;;8.70;61.00;;;;;;5035678;28;20428;-78
2022/04/29 02:44:57;;;;;;;8.27;5.95;;;8.80;61.80;;;;;;5038026;28;20192;-79
2022/04/29 02:47:24;;;;;;;8.63;7.35;;;8.80;60.70;;;;;;5038688;28;20243;-79
2022/04/29 02:49:53;;;;;;;6.55;5.82;;;8.70;61.10;;;;;;5030132;28;20230;-78
2022/04/29 02:52:19;;;;;;;7.88;7.07;;;8.70;61.60;;;;;;5028054;28;20292;-78
2022/04/29 02:54:46;;;;;;;8.23;7.43;;;8.70;61.30;;;;;;5030272;28;20224;-78
2022/04/29 02:57:13;;;;;;;7.60;6.90;;;8.70;61.70;;;;;;5019408;28;20238;-78
2022/04/29 02:59:40;;;;;;;6.82;6.22;;;8.60;62.10;;;;;;5024328;28;20230;-78
2022/04/29 03:02:07;;;;;;;8.05;7.30;;;8.60;62.40;;;;;;5019909;28;20214;-79
2022/04/29 03:04:34;;;;;;;8.18;7.47;;;8.50;62.30;;;;;;5023706;28;20239;-79
2022/04/29 03:07:03;;;;;;;7.88;6.93;;;8.50;63.30;;;;;;5024454;28;20270;-80
2022/04/29 03:09:31;;;;;;;9.40;8.50;;;8.40;63.80;;;;;;5017373;28;20653;-79
2022/04/29 03:11:58;;;;;;;8.18;7.25;;;8.40;64.60;;;;;;5015414;28;20231;-79
2022/04/29 03:14:25;;;;;;;8.68;7.85;;;8.30;65.80;;;;;;5024576;28;20447;-79
2022/04/29 03:16:52;;;;;;;8.52;7.72;;;8.20;67.00;;;;;;5022012;28;20232;-78
2022/04/29 03:19:19;;;;;;;8.85;7.97;;;8.20;67.10;;;;;;5019143;28;20298;-79
2022/04/29 03:21:46;;;;;;;12.05;7.68;;;8.10;67.80;;;;;;5027931;28;20196;-78
2022/04/29 03:24:14;;;;;;;9.32;8.43;;;8.10;68.40;;;;;;5037114;28;20238;-79
2022/04/29 03:26:41;;;;;;;8.80;7.90;;;8.00;69.00;;;;;;5035873;28;20188;-79
2022/04/29 03:29:08;;;;;;;10.63;9.15;;;8.10;69.00;;;;;;5037225;28;20192;-79
2022/04/29 03:31:35;;;;;;;10.30;9.10;;;8.00;69.30;;;;;;5035966;28;20231;-79
2022/04/29 03:34:02;;;;;;;9.13;8.23;;;8.00;70.50;;;;;;5035255;28;20389;-79
2022/04/29 03:36:29;;;;;;;9.85;8.57;;;7.90;71.10;;;;;;5037056;28;20242;-78
2022/04/29 03:38:55;;;;;;;11.80;9.50;;;7.90;71.20;;;;;;5029318;28;20242;-78
2022/04/29 03:41:24;;;;;;;14.80;9.50;;;7.80;71.80;;;;;;5034454;28;20708;-78
2022/04/29 03:43:51;;;;;;;13.00;9.20;;;7.90;72.00;;;;;;5021958;28;20540;-78
2022/04/29 03:46:18;;;;;;;11.60;10.40;;;7.80;72.90;;;;;;5015944;28;20572;-79
2022/04/29 03:51:29;;;;;;;11.10;9.95;;;7.70;73.90;;;;;;5017426;28;20234;-78
2022/04/29 03:53:56;;;;;;;12.27;11.07;;;7.60;74.20;;;;;;5019273;28;20294;-78
2022/04/29 03:56:25;;;;;;;12.40;11.07;;;7.60;75.20;;;;;;5019276;28;20204;-80
2022/04/29 03:58:52;;;;;;;12.27;9.82;;;7.50;76.20;;;;;;5021204;28;20211;-78
2022/04/29 04:01:19;;;;;;;11.18;9.88;;;7.50;77.20;;;;;;5016814;28;20248;-79
2022/04/29 04:03:46;;;;;;;12.15;9.75;;;7.50;77.40;;;;;;5016270;28;20687;-78
2022/04/29 04:08:57;;;;;;;11.15;9.90;;;7.50;78.10;;;;;;5027211;28;20206;-79
2022/04/29 04:11:25;;;;;;;11.15;9.95;;;7.50;77.90;;;;;;5029311;28;20242;-79
2022/04/29 04:13:52;;;;;;;12.88;11.40;;;7.50;78.20;;;;;;5029124;28;20238;-78
2022/04/29 04:16:23;;;;;;;11.55;10.43;;;7.50;78.40;;;;;;5016945;28;20233;-78
2022/04/29 04:18:50;;;;;;;11.52;10.15;;;7.40;79.00;;;;;;5013626;28;20228;-78
2022/04/29 04:21:17;;;;;;;12.07;10.25;;;7.40;79.30;;;;;;5013476;28;20208;-79
2022/04/29 04:23:43;;;;;;;11.18;10.15;;;7.40;80.10;;;;;;5013908;28;20203;-78
2022/04/29 04:26:10;;;;;;;11.85;10.65;;;7.30;80.60;;;;;;5013374;28;20219;-79
2022/04/29 04:28:38;;;;;;;12.43;11.18;;;7.20;81.80;;;;;;5013701;28;20661;-79
2022/04/29 04:31:05;;;;;;;15.52;10.90;;;7.20;82.70;;;;;;5020081;28;20216;-79
2022/04/29 04:33:32;;;;;;;11.48;10.30;;;7.20;83.30;;;;;;5015993;28;20231;-78
2022/04/29 04:36:00;;;;;;;11.75;10.55;;;7.20;83.40;;;;;;5016213;28;20222;-78
2022/04/29 04:38:27;;;;;;;12.15;10.95;;;7.20;83.60;;;;;;5018265;28;20232;-78
2022/04/29 04:40:55;;;;;;;13.65;11.43;;;7.20;83.70;;;;;;5015766;28;20214;-78
2022/04/29 04:43:23;;;;;;;11.90;10.70;;;7.30;83.40;;;;;;5014369;28;20680;-78
2022/04/29 04:45:51;;;;;;;12.57;11.27;;;7.30;83.40;;;;;;5016344;28;20210;-78
2022/04/29 04:48:19;;;;;;;11.50;10.30;;;7.30;82.70;;;;;;5023739;28;20696;-78
2022/04/29 04:50:46;;;;;;;11.65;10.40;;;7.40;81.70;;;;;;5013823;28;20250;-78
2022/04/29 04:53:13;;;;;;;14.60;10.88;;;7.50;81.10;;;;;;5019933;28;20234;-79
2022/04/29 04:55:40;;;;;;;12.00;9.95;;;7.60;81.20;;;;;;5019728;28;20204;-78
2022/04/29 04:58:08;;;;;;;15.23;10.80;;;7.60;79.40;;;;;;5018170;28;20239;-78
2022/04/29 05:00:37;;;;;;;11.15;10.05;;;7.70;79.50;;;;;;5022923;28;20575;-80
2022/04/29 05:03:06;;;;;;;10.85;9.75;;;7.80;79.60;;;;;;5016783;28;20208;-78
2022/04/29 05:05:33;;;;;;;11.95;10.35;;;7.80;78.10;;;;;;5013723;28;20354;-79
2022/04/29 05:08:00;;;;;;;11.57;10.15;;;7.80;77.20;;;;;;5031826;28;20231;-79
2022/04/29 05:10:26;;;;;;;11.07;10.07;;;8.00;76.70;;;;;;5032552;28;20247;-79
2022/04/29 05:12:53;;;;;;;10.07;9.18;;;8.10;74.50;;;;;;5027567;28;20227;-78
2022/04/29 05:15:20;;;;;;;18.10;9.73;;;8.00;74.90;;;;;;5021142;28;20275;-79
2022/04/29 05:17:47;;;;;;;11.70;10.07;;;8.10;75.00;;;;;;5025424;28;20656;-78
2022/04/29 05:20:16;;;;;;;11.32;10.18;;;8.30;73.00;;;;;;5033297;28;20223;-79
2022/04/29 05:22:45;;;;;;;21.13;10.52;;;8.30;73.00;;;;;;5026228;28;20268;-77
2022/04/29 05:25:12;;;;;;;15.32;10.77;;;8.50;72.40;;;;;;5020652;28;20212;-77
2022/04/29 05:27:39;;;;;;;12.02;10.82;;;8.50;71.70;;;;;;5026607;28;20258;-78
2022/04/29 05:30:08;;;;;;;10.43;9.38;;;8.70;70.80;;;;;;5025571;28;20234;-79
2022/04/29 05:32:35;;;;;;;12.15;10.95;;;9.00;68.80;;;;;;5023504;28;20239;-79
2022/04/29 05:35:02;;;;;;;10.90;9.80;;;9.20;66.30;;;;;;5021028;28;20216;-79
2022/04/29 05:37:31;;;;;;;10.57;9.20;;;9.40;65.30;;;;;;5035720;28;20219;-79
2022/04/29 05:42:43;;;;;;;11.35;10.20;;;10.00;61.40;;;;;;5034469;28;20186;-80
2022/04/29 05:45:10;;;;;;;9.52;8.50;;;9.80;62.60;;;;;;5034107;28;20223;-78
2022/04/29 05:47:37;;;;;;;8.63;7.80;;;10.10;58.80;;;;;;5034768;28;20231;-79
2022/04/29 05:50:05;;;;;;;10.05;9.15;;;10.10;58.80;;;;;;5036439;28;20204;-81
2022/04/29 05:52:33;;;;;;;9.38;8.48;;;9.90;59.60;;;;;;5030727;28;20322;-79
2022/04/29 05:55:00;;;;;;;10.65;9.52;;;9.80;60.00;;;;;;5018891;28;20200;-78
2022/04/29 05:57:27;;;;;;;10.02;8.90;;;10.10;58.80;;;;;;5017137;28;20270;-79
2022/04/29 05:59:54;;;;;;;11.23;9.38;;;10.00;58.70;;;;;;5036873;28;20203;-79
2022/04/29 06:02:23;;;;;;;11.20;10.10;;;9.90;59.60;;;;;;5040324;28;20223;-79
2022/04/29 06:04:50;;;;;;;11.75;10.55;;;10.00;58.70;;;;;;5046276;28;20199;-78
2022/04/29 06:07:17;;;;;;;10.82;8.52;;;10.10;58.00;;;;;;5049698;28;20552;-79
2022/04/29 06:09:46;;;;;;;12.70;10.50;;;9.90;60.20;;;;;;5043810;28;20667;-79
2022/04/29 06:12:13;;;;;;;9.90;9.00;;;9.80;59.50;;;;;;5044265;28;20246;-80
2022/04/29 06:14:41;;;;;;;10.90;9.85;;;9.70;61.20;;;;;;5058622;28;20207;-80
2022/04/29 06:17:08;;;;;;;10.38;9.27;;;9.90;59.60;;;;;;5058522;28;20214;-79
2022/04/29 06:19:35;;;;;;;9.75;8.85;;;10.00;58.70;;;;;;5058438;28;20207;-78
2022/04/29 06:22:01;;;;;;;12.05;9.02;;;10.10;58.80;;;;;;5058973;28;20214;-79
2022/04/29 06:24:29;;;;;;;11.30;10.10;;;10.10;58.80;;;;;;5058801;28;20191;-79
2022/04/29 06:26:57;;;;;;;10.50;9.50;;;10.50;58.50;;;;;;5058008;28;20289;-79
2022/04/29 06:29:24;;;;;;;9.18;8.27;;;10.80;56.40;;;;;;5052265;28;20219;-80
2022/04/29 06:31:51;;;;;;;10.90;9.90;;;10.90;55.40;;;;;;5042428;28;20200;-80
2022/04/29 06:34:18;;;;;;;11.25;10.02;;;10.70;54.40;;;;;;5057621;28;20218;-80
2022/04/29 06:36:45;;;;;;;11.57;10.38;;;10.50;55.60;;;;;;5056853;28;20222;-80
2022/04/29 06:39:12;;;;;;;15.05;10.05;;;10.30;56.40;;;;;;5044537;28;20214;-79
2022/04/29 06:41:40;;;;;;;16.98;10.60;;;10.30;57.20;;;;;;5038609;28;20219;-80
2022/04/29 06:44:09;;;;;;;10.90;9.80;;;10.50;56.00;;;;;;5039088;28;20184;-80
2022/04/29 06:46:36;;;;;;;10.52;9.40;;;10.50;56.40;;;;;;5038253;28;20264;-79
2022/04/29 06:49:03;;;;;;;10.90;9.80;;;10.80;56.70;;;;;;5025226;28;20283;-78
2022/04/29 06:51:30;;;;;;;10.00;9.10;;;11.20;55.10;;;;;;5021443;28;20216;-80
2022/04/29 06:53:57;;;;;;;10.27;9.27;;;11.40;53.20;;;;;;5024946;28;20232;-80
2022/04/29 06:56:25;;;;;;;12.05;9.05;;;11.60;52.20;;;;;;5034508;28;20427;-82
2022/04/29 06:58:54;;;;;;;10.35;9.27;;;11.80;51.30;;;;;;5046562;28;20261;-80
2022/04/29 07:01:28;;;;;;;13.02;9.70;;;11.70;50.80;;;;;;5049155;28;20204;-81
2022/04/29 07:03:56;;;;;;;10.40;9.40;;;11.60;50.70;;;;;;5051281;28;20190;-81
2022/04/29 07:06:23;;;;;;;10.27;9.25;;;11.60;50.70;;;;;;5046864;28;20467;-81
2022/04/29 07:08:50;;;;;;;11.02;10.00;;;11.40;51.90;;;;;;5053190;28;20218;-83
2022/04/29 07:11:17;;;;;;;10.38;9.18;;;11.40;52.40;;;;;;5058689;28;20206;-82
2022/04/29 07:13:44;;;;;;;11.65;10.48;;;11.40;52.90;;;;;;5058547;28;20215;-81
2022/04/29 07:16:11;;;;;;;14.57;9.90;;;11.60;53.30;;;;;;5049160;28;20316;-79
2022/04/29 07:18:39;;;;;;;13.85;9.77;;;11.70;52.60;;;;;;5041423;28;20281;-82
2022/04/29 07:21:06;;;;;;;10.52;9.52;;;11.70;52.80;;;;;;5042591;28;20234;-81
2022/04/29 07:23:33;;;;;;;14.45;10.50;;;11.90;51.20;;;;;;5039660;28;20218;-81
2022/04/29 07:26:00;;;;;;;10.40;9.40;;;12.10;51.20;;;;;;5038263;28;20203;-80
2022/04/29 07:28:27;;;;;;;14.80;10.95;;;12.30;51.00;;;;;;5039334;28;20235;-80
2022/04/29 07:30:56;;;;;;;17.55;9.45;;;12.30;50.40;;;;;;5038384;28;20207;-80
2022/04/29 07:33:23;;;;;;;11.05;10.05;;;12.50;50.20;;;;;;5039162;28;20318;-79
2022/04/29 07:44:06;;;;;;;12.10;10.13;;;13.30;48.00;;;;;;5038737;28;20187;-82
2022/04/29 07:46:33;;;;;;;14.10;9.45;;;13.60;47.80;;;;;;5036591;28;20207;-80
2022/04/29 07:49:00;;;;;;;13.52;10.55;;;13.90;46.50;;;;;;5035642;28;20226;-79
2022/04/29 07:51:28;;;;;;;10.00;8.93;;;13.90;46.90;;;;;;5034969;28;20309;-80
2022/04/29 07:53:55;;;;;;;14.53;9.50;;;14.40;45.20;;;;;;5036479;28;20485;-80
2022/04/29 07:56:22;;;;;;;9.63;8.73;;;14.70;43.90;;;;;;5036056;28;20441;-79
2022/04/29 07:58:49;;;;;;;9.00;8.10;;;14.80;44.00;;;;;;5042934;28;20492;-83
2022/04/29 08:01:16;;;;;;;10.70;9.70;;;14.60;43.80;;;;;;5056034;28;20425;-79
2022/04/29 08:03:43;;;;;;;12.13;9.20;;;14.90;42.10;;;;;;5054154;28;20459;-82
2022/04/29 08:06:10;;;;;;;9.47;8.33;;;15.20;42.60;;;;;;5049740;28;20486;-83
2022/04/29 08:08:38;;;;;;;10.43;9.10;;;15.40;41.50;;;;;;5044347;28;20474;-82
2022/04/29 08:11:05;;;;;;;9.17;8.10;;;15.60;38.30;;;;;;5048371;28;20453;-84
2022/04/29 08:13:32;;;;;;;9.27;8.17;;;15.60;39.70;;;;;;5056671;28;20476;-83
2022/04/29 08:16:05;;;;;;;9.10;8.00;;;16.20;40.50;;;;;;5056728;28;20441;-82
2022/04/29 08:18:32;;;;;;;10.80;8.20;;;16.50;37.10;;;;;;5036745;28;20522;-79
2022/04/29 08:20:59;;;;;;;9.63;8.20;;;16.90;37.10;;;;;;5037118;28;20428;-79
2022/04/29 08:23:26;;;;;;;8.70;7.90;;;17.00;36.00;;;;;;5039831;28;20493;-80
2022/04/29 08:25:55;;;;;;;10.00;9.10;;;16.70;37.80;;;;;;5038776;28;20470;-78
2022/04/29 08:28:23;;;;;;;9.43;8.43;;;16.70;37.10;;;;;;5031396;28;20555;-77
2022/04/29 08:30:50;;;;;;;9.03;8.20;;;17.10;36.10;;;;;;5047743;28;20438;-78
2022/04/29 08:33:17;;;;;;;13.50;7.60;;;17.00;36.00;;;;;;5048020;28;20553;-77
2022/04/29 08:35:44;;;;;;;9.63;8.53;;;17.10;36.10;;;;;;5050864;28;20465;-78
2022/04/29 08:38:11;;;;;;;8.17;7.47;;;16.80;35.80;;;;;;5042021;28;20433;-77
2022/04/29 08:40:41;;;;;;;8.70;7.67;;;17.00;36.00;;;;;;5030247;28;20441;-77
2022/04/29 08:43:12;;;;;;;9.40;7.80;;;17.00;34.30;;;;;;5031178;28;20520;-78
2022/04/29 08:45:39;;;;;;;8.30;7.60;;;16.60;34.80;;;;;;5035370;28;20920;-78
2022/04/29 08:48:06;;;;;;;9.27;8.37;;;16.50;35.50;;;;;;5040827;28;21028;-79
2022/04/29 08:50:34;;;;;;;10.37;8.53;;;16.70;34.50;;;;;;5036324;28;20932;-78
2022/04/29 08:53:01;;;;;;;8.17;7.37;;;16.60;34.30;;;;;;5040966;28;20504;-79
2022/04/29 09:01:02;;;;;;;8.10;7.27;;;17.30;33.00;;;;;;5054717;28;20546;-79
2022/04/29 09:03:29;;;;;;;8.40;7.60;;;17.20;33.60;;;;;;5033650;28;20446;-79
2022/04/29 09:05:56;;;;;;;9.73;7.47;;;17.10;34.60;;;;;;5043703;28;20446;-79
2022/04/29 09:08:24;;;;;;;7.63;6.93;;;17.50;34.60;;;;;;5038905;28;20500;-77
2022/04/29 09:10:53;;;;;;;7.60;6.90;;;17.80;34.00;;;;;;5025950;28;20431;-78
2022/04/29 09:13:24;;;;;;;9.27;8.03;;;17.60;33.40;;;;;;5016423;28;20465;-80
2022/04/29 09:15:52;;;;;;;8.17;7.37;;;17.50;32.90;;;;;;5019321;28;20477;-81
2022/04/29 09:18:33;;;;;;;8.00;7.20;;;17.60;34.00;;;;;;5017975;28;20510;-77
2022/04/29 09:21:01;;;;;;;7.33;6.63;;;17.80;32.80;;;;;;5017083;28;20907;-78
2022/04/29 09:23:29;;;;;;;8.07;7.30;;;17.80;32.10;;;;;;5015964;28;20459;-78
2022/04/29 09:25:59;;;;;;;9.20;6.30;;;17.30;33.50;;;;;;5019346;28;20604;-77
2022/04/29 09:28:27;;;;;;;11.57;6.80;;;18.00;31.90;;;;;;5018231;28;20474;-77
2022/04/29 09:30:56;;;;;;;9.63;7.93;;;18.10;31.30;;;;;;5019855;28;20512;-77
2022/04/29 09:33:25;;;;;;;7.67;6.93;;;18.40;30.40;;;;;;5020541;28;20490;-78
2022/04/29 09:35:53;;;;;;;8.43;6.80;;;18.70;29.80;;;;;;5027540;28;20455;-78
2022/04/29 09:41:05;;;;;;;10.30;7.70;;;18.10;30.90;;;;;;5037640;28;20479;-77
2022/04/29 09:43:35;;;;;;;9.70;6.73;;;18.60;30.00;;;;;;5037263;28;20505;-77
2022/04/29 09:46:19;;;;;;;8.50;6.80;;;19.00;29.40;;;;;;5039316;28;20467;-79
2022/04/29 09:48:57;;;;;;;7.60;6.90;;;18.90;29.20;;;;;;5038554;28;20458;-78
2022/04/29 09:51:54;;;;;;;14.00;6.57;;;18.80;29.40;;;;;;5035546;28;20481;-81
2022/04/29 09:54:24;;;;;;;9.10;6.90;;;18.70;28.00;;;;;;5023853;28;20565;-79
2022/04/29 09:57:04;;;;;;;11.20;7.27;;;18.50;28.70;;;;;;5023276;28;20489;-78
2022/04/29 09:59:34;;;;;;;7.53;6.83;;;18.60;28.00;;;;;;5024272;28;20944;-78
2022/04/29 10:02:04;;;;;;;7.37;6.63;;;19.00;27.70;;;;;;5025218;28;20450;-79
2022/04/29 10:04:35;;;;;;;8.30;6.70;;;19.10;27.00;;;;;;5024514;28;20425;-77
2022/04/29 10:07:04;;;;;;;8.00;6.50;;;18.70;25.70;;;;;;5023531;28;20983;-76
2022/04/29 10:09:33;;;;;;;7.23;5.90;;;19.00;27.20;;;;;;5023335;28;20453;-78
2022/04/29 10:12:02;;;;;;;7.93;6.47;;;19.30;26.30;;;;;;5024768;28;20426;-81
2022/04/29 10:14:30;;;;;;;6.00;5.40;;;18.90;27.50;;;;;;5030576;28;20527;-79
2022/04/29 10:22:38;;;;;;;7.37;6.10;;;19.50;25.30;;;;;;5054327;28;20441;-77
2022/04/29 10:25:10;;;;;;;6.87;5.90;;;19.20;25.00;;;;;;5039144;28;20494;-79
2022/04/29 10:27:39;;;;;;;13.40;6.27;;;19.60;24.50;;;;;;5039798;28;21004;-78
2022/04/29 10:30:07;;;;;;;6.13;5.63;;;19.40;24.70;;;;;;5037142;28;20443;-77
2022/04/29 10:33:03;;;;;;;6.50;5.80;;;19.30;24.60;;;;;;5038255;28;20808;-77
2022/04/29 10:35:53;;;;;;;6.60;5.93;;;18.70;23.70;;;;;;5036788;28;20416;-77
2022/04/29 10:38:23;;;;;;;7.30;6.60;;;18.90;24.90;;;;;;5033426;28;20509;-78
2022/04/29 10:41:10;;;;;;;9.90;5.97;;;18.90;23.40;;;;;;5018440;28;20433;-77
2022/04/29 10:43:38;;;;;;;5.87;5.37;;;19.10;23.40;;;;;;5017867;28;20438;-79
2022/04/29 10:46:31;;;;;;;6.50;5.27;;;19.40;23.80;;;;;;5019718;28;20488;-79
2022/04/29 10:49:20;;;;;;;9.17;5.40;;;19.80;22.80;;;;;;5016570;28;20914;-77
2022/04/29 10:51:49;;;;;;;8.53;6.13;;;19.90;23.00;;;;;;5016729;28;20459;-78
2022/04/29 10:54:36;;;;;;;6.03;5.10;;;19.70;22.60;;;;;;5015555;28;21112;-79
2022/04/29 10:57:06;;;;;;;7.10;5.90;;;20.00;22.50;;;;;;5018001;28;20929;-80
2022/04/29 10:59:50;;;;;;;17.20;6.83;;;20.00;21.80;;;;;;5017200;28;20509;-80
2022/04/29 11:02:24;;;;;;;6.67;6.07;;;19.20;22.80;;;;;;5017557;28;20939;-79
2022/04/29 11:04:52;;;;;;;5.10;4.60;;;19.00;23.60;;;;;;5022023;28;20581;-78
2022/04/29 11:07:38;;;;;;;8.53;5.53;;;19.40;21.80;;;;;;5019379;28;20790;-76
2022/04/29 11:10:06;;;;;;;7.20;5.27;;;19.20;23.10;;;;;;5022498;28;20459;-76
2022/04/29 11:12:34;;;;;;;5.83;5.33;;;18.90;20.30;;;;;;5018797;28;20433;-78
2022/04/29 11:15:14;;;;;;;5.20;4.27;;;19.20;21.50;;;;;;5018073;28;21061;-78
2022/04/29 11:17:41;;;;;;;4.27;3.97;;;19.40;19.10;;;;;;5019183;28;20814;-79
2022/04/29 11:20:21;;;;;;;5.30;4.80;;;19.80;19.40;;;;;;5026593;28;20470;-80
2022/04/29 11:26:07;;;;;;;6.80;5.27;;;20.40;21.00;;;;;;5015573;28;20390;-80
2022/04/29 11:28:34;;;;;;;5.83;4.30;;;20.20;19.80;;;;;;5015267;28;20504;-78
2022/04/29 11:31:03;;;;;;;4.60;4.20;;;19.80;16.60;;;;;;5014710;28;20524;-76
2022/04/29 11:33:30;;;;;;;5.03;4.57;;;19.30;16.40;;;;;;5015249;28;20424;-77
2022/04/29 11:36:07;;;;;;;4.47;4.07;;;19.10;16.90;;;;;;5017449;28;20437;-77
2022/04/29 11:38:41;;;;;;;5.57;5.07;;;19.50;17.50;;;;;;5032872;28;20489;-79
2022/04/29 11:41:08;;;;;;;5.67;4.40;;;20.00;16.60;;;;;;5042820;28;20537;-79
2022/04/29 11:43:35;;;;;;;6.20;4.70;;;20.10;17.10;;;;;;5034806;28;20436;-78
2022/04/29 11:46:09;;;;;;;5.87;5.37;;;20.10;17.50;;;;;;5034990;28;20512;-79
2022/04/29 11:48:36;;;;;;;6.23;4.63;;;20.10;17.50;;;;;;5035244;28;20477;-77
2022/04/29 11:51:05;;;;;;;5.23;4.73;;;19.80;18.10;;;;;;5037579;28;20458;-78
2022/04/29 11:53:33;;;;;;;7.70;4.40;;;19.90;18.10;;;;;;5034338;28;20521;-80
2022/04/29 11:56:00;;;;;;;5.20;4.70;;;20.10;17.40;;;;;;5034051;28;20501;-77
2022/04/29 11:58:30;;;;;;;5.50;5.00;;;19.90;17.90;;;;;;5033983;28;20458;-78
2022/04/29 12:00:57;;;;;;;7.13;4.97;;;20.20;17.30;;;;;;5034595;28;20461;-77
2022/04/29 12:03:25;;;;;;;8.10;5.60;;;19.90;17.40;;;;;;5035114;28;20460;-78
2022/04/29 12:05:53;;;;;;;7.90;4.00;;;19.70;17.60;;;;;;5036276;28;20842;-78
2022/04/29 12:08:22;;;;;;;7.20;4.60;;;19.80;17.90;;;;;;5036884;28;20524;-79
2022/04/29 12:10:49;;;;;;;5.33;4.17;;;20.20;17.10;;;;;;5036032;28;20413;-79
2022/04/29 12:13:20;;;;;;;5.17;4.20;;;20.20;17.10;;;;;;5037464;28;20878;-77
2022/04/29 12:15:47;;;;;;;6.07;5.20;;;20.00;17.50;;;;;;5038729;28;20529;-78
2022/04/29 12:18:15;;;;;;;4.27;3.97;;;20.10;17.60;;;;;;5041256;28;20562;-77
2022/04/29 12:20:44;;;;;;;5.90;4.97;;;20.20;18.00;;;;;;5038871;28;20454;-77
2022/04/29 12:23:13;;;;;;;5.77;4.60;;;20.50;17.00;;;;;;5022849;28;20528;-79
2022/04/29 12:25:45;;;;;;;6.60;4.60;;;20.80;16.50;;;;;;5038198;28;20430;-76
2022/04/29 12:28:17;;;;;;;6.27;4.60;;;20.80;16.90;;;;;;5037064;28;20888;-76
2022/04/29 12:36:44;;;;;;;6.47;4.70;;;21.00;17.50;;;;;;5027944;28;20444;-78
2022/04/29 12:39:11;;;;;;;4.50;4.13;;;21.20;16.40;;;;;;5029025;28;20422;-78
2022/04/29 12:41:40;;;;;;;6.13;5.53;;;20.80;17.00;;;;;;5028278;28;20499;-77
2022/04/29 12:45:03;;;;;;;5.50;5.00;;;20.40;18.00;;;;;;5020539;28;20454;-77
2022/04/29 12:47:00;;;;;;;5.20;4.70;;;20.30;18.30;;;;;;5038343;28;20556;-77
2022/04/29 12:49:27;;;;;;;6.30;4.70;;;20.70;17.70;;;;;;5029931;28;20514;-80
2022/04/29 12:51:59;;;;;;;5.90;4.03;;;20.50;18.70;;;;;;5025757;28;20430;-78
2022/04/29 12:54:28;;;;;;;4.80;4.40;;;20.50;17.70;;;;;;5036924;28;20514;-78
2022/04/29 12:56:56;;;;;;;6.00;5.40;;;21.20;17.70;;;;;;5030134;28;20510;-77
2022/04/29 12:59:24;;;;;;;5.13;4.70;;;21.00;16.90;;;;;;5036201;28;20957;-77
2022/04/29 13:01:52;;;;;;;5.00;4.37;;;21.40;16.90;;;;;;5040093;28;20449;-77
2022/04/29 13:04:19;;;;;;;5.00;3.90;;;21.50;17.00;;;;;;5042622;28;20461;-78
2022/04/29 13:06:46;;;;;;;4.63;4.23;;;21.40;17.70;;;;;;5041262;28;20456;-76
2022/04/29 13:09:14;;;;;;;4.83;4.17;;;21.90;17.10;;;;;;5040817;28;20600;-77
2022/04/29 13:11:44;;;;;;;4.83;4.43;;;22.30;15.70;;;;;;5036474;28;20433;-77
2022/04/29 13:14:16;;;;;;;5.87;5.10;;;21.90;15.90;;;;;;5020685;28;20548;-77
2022/04/29 13:16:44;;;;;;;7.47;5.07;;;22.20;15.50;;;;;;5030430;28;20465;-77
2022/04/29 13:19:11;;;;;;;10.57;5.23;;;21.50;16.50;;;;;;5020431;28;20455;-77
2022/04/29 13:21:38;;;;;;;8.00;5.17;;;21.30;16.40;;;;;;5038694;28;20440;-78
2022/04/29 13:24:05;;;;;;;7.83;4.77;;;21.20;16.70;;;;;;5043100;28;20956;-77
2022/04/29 13:26:33;;;;;;;4.90;4.47;;;21.70;16.80;;;;;;5047950;28;20447;-77
2022/04/29 13:28:59;;;;;;;5.30;4.17;;;22.30;16.00;;;;;;5049943;28;20522;-77
2022/04/29 13:31:28;;;;;;;9.37;4.60;;;22.00;16.70;;;;;;5055075;28;20457;-76
2022/04/29 13:33:54;;;;;;;5.37;4.87;;;22.30;16.80;;;;;;5056167;28;20449;-77